Meteo Giornale » Osservazioni meteo Croazia » Dubrovnik-Cilipi

ore: 09:00 - Osservazioni Meteo Dubrovnik-Cilipi
Lat. 42° 34' N Lon. 18° 16' E Alt. 157 metri s.l.m.

sereno Europe/Zagreb

18 °C

Sereno

Temp. 24 Ore

14 °C

20 °C

Nord/Nord-Est

33.3 Km/h

Dew point 8 °C

Umidità 51 %

Visibilità  10 Km

Il sole sorge alle ore 06:14

Il sole tramonta alle ore 16:46

Data e Ora Cielo e Fenomeni T °C DP °C Um. % Pres. hPa Vis. km Vento km/h
Oggi h: 09:00 sereno Sereno 18 8 51 1012 10 N/NE 33.3
Oggi h: 07:30 sereno Sereno 16 9 63 1012 10 N/NE 29.6
Oggi h: 07:00 sereno Sereno 16 9 63 1012 10 N/NE 27.8
Oggi h: 06:30 sereno Sereno 16 9 63 1011 10 N/NE 22.2
Oggi h: 06:00 sereno Sereno 16 10 67 1012 10 E 9.3
Oggi h: 05:30 poco_nuvoloso Poco Nuvoloso 16 10 67 1011 10 N 9.3
Oggi h: 05:00 poco_nuvoloso Poco Nuvoloso 15 10 72 1011 10 N/NE 13
Oggi h: 04:00 nuvoloso Nuvoloso 16 12 77 1012 10 E/NE 11.1
Oggi h: 03:30 molto_nuvoloso Molto Nuvoloso 16 12 77 1012 10 N 5.5
Oggi h: 03:00 poco_nuvoloso Poco Nuvoloso 15 12 82 1012 10 E 13
Oggi h: 02:30 sereno Sereno 16 11 72 1012 10 E 9.3
Oggi h: 02:00 sereno Sereno 14 12 87 1012 10 E 11.1
Oggi h: 01:30 sereno Sereno 16 12 77 1013 10 E 14.8
Oggi h: 01:00 nuvoloso Nuvoloso 17 12 72 1013 10 E/NE 9.3
Oggi h: 00:30 molto_nuvoloso Molto Nuvoloso 17 12 72 1013 10 E/NE 13
Oggi h: 00:00 nuvoloso Nuvoloso 17 12 72 1012 10 E 11.1
Ieri h: 23:30 poco_nuvoloso Poco Nuvoloso 16 12 77 1013 10 E 14.8
Ieri h: 23:00 poco_nuvoloso Poco Nuvoloso 16 13 82 1013 10 E 14.8
Ieri h: 22:30 nuvoloso Nuvoloso 16 13 82 1013 10 E/NE 14.8
Ieri h: 22:00 poco_nuvoloso Poco Nuvoloso 16 13 82 1013 10 E/NE 14.8
Ieri h: 21:30 nuvoloso Nuvoloso 16 13 82 1013 10 E 14.8
Ieri h: 21:00 poco_nuvoloso Poco Nuvoloso 16 13 82 1013 10 E 14.8
Ieri h: 20:30 sereno Sereno 16 13 82 1013 10 E 14.8
Ieri h: 20:00 poco_nuvoloso Poco Nuvoloso 16 13 82 1013 10 E 16.7
Ieri h: 19:30 poco_nuvoloso Poco Nuvoloso 16 14 87 1012 10 E 14.8
Ieri h: 18:30 nuvoloso Nuvoloso 15 14 93 1013 10 E 14.8
Ieri h: 18:00 coperto_pioggia Pioggia Debole 15 14 93 1013 10 E 18.5
Ieri h: 17:00 molto_nuvoloso Molto Nuvoloso 18 12 67 1012 10 E/SE 18.5
Ieri h: 16:00 molto_nuvoloso Molto Nuvoloso 19 12 63 1012 10 SE 25.9
Ieri h: 15:30 molto_nuvoloso Molto Nuvoloso 19 13 68 1012 10 SE 24
Ieri h: 15:00 nuvoloso Nuvoloso 20 13 64 1012 10 SE 24
Ieri h: 14:30 nuvoloso Nuvoloso 20 13 64 1012 10 SE 29.6
Ieri h: 14:00 poco_nuvoloso Poco Nuvoloso 20 13 64 1012 10 SE 29.6
Ieri h: 13:30 nuvoloso Nuvoloso 20 13 64 1012 10 SE 31.5
Ieri h: 13:00 nuvoloso Nuvoloso 20 13 64 1012 10 SE 33.3
Ieri h: 12:30 poco_nuvoloso Poco Nuvoloso 20 12 59 1012 10 S/SE 31.5
Ieri h: 12:00 poco_nuvoloso Poco Nuvoloso 20 12 59 1013 10 SE 31.5
Ieri h: 11:30 poco_nuvoloso Poco Nuvoloso 20 12 59 1013 10 SE 29.6
Ieri h: 11:00 poco_nuvoloso Poco Nuvoloso 20 13 64 1013 10 E/SE 29.6
Ieri h: 10:30 poco_nuvoloso Poco Nuvoloso 19 13 68 1013 10 SE 33.3
Ieri h: 10:00 nuvoloso Nuvoloso 19 13 68 1013 10 SE 27.8